Twin Cities, Minnesota
Current Conditions -  °F | °C
As of 6:53 AM on Monday 22 Dec 2014 (Local Time) from KMSP Reporting Station
Haze Haze  
Wind Chill: 28°   Ceiling: 700
Heat Index: 37°   Visibility: 4mi
Dew Point: 35°   Wind: 16mph
Humidity: 93%   Direction: 130°SE
Pressure: 29.67"   Gusts: NA
Location:  44.8695°N, 93.2126°W
Report Text: KMSP 221253Z 13014KT 4SM BR OVC007 03/02 A2967 RMK AO2 SLP053 T00280017 $
Loading
Personal Weather Stations






























Interactive Weather Map New forecast layout! Learn more

10-Day Weather Forecast

Advertisements
Track Severe Weather on mobile